Time;durP1;ratioP1;P1;durP2;ratioP2;P2;SDS_P1;SDS_P2;PMS_P1;PMS_P2;Temp;Humidity;BMP_temperature;BMP_pressure;BME280_temperature;BME280_humidity;BME280_pressure;Samples;Min_cycle;Max_cycle;Signal;HPM_P1;HPM_P2
2023/04/19 00:00:44;;;;;;;31.58;17.00;;;8.80;99.90;;;;;;7578391;19;20014;-74
2023/04/19 00:03:17;;;;;;;25.40;16.25;;;8.80;99.90;;;;;;7593118;19;21520;-73
2023/04/19 00:05:52;;;;;;;31.00;17.50;;;8.80;99.90;;;;;;7575902;19;20029;-74
2023/04/19 00:08:25;;;;;;;28.85;16.38;;;8.80;99.90;;;;;;7579972;19;20014;-74
2023/04/19 00:10:57;;;;;;;30.07;17.10;;;8.80;99.90;;;;;;7581458;19;20034;-74
2023/04/19 00:13:29;;;;;;;25.58;14.95;;;8.80;99.90;;;;;;7586328;19;20071;-73
2023/04/19 00:16:01;;;;;;;28.33;16.60;;;8.80;99.90;;;;;;7573564;19;20026;-73
2023/04/19 00:18:34;;;;;;;31.15;17.58;;;8.80;99.90;;;;;;7585727;19;20014;-74
2023/04/19 00:21:06;;;;;;;29.40;16.70;;;8.90;99.90;;;;;;7584586;19;20010;-71
2023/04/19 00:23:38;;;;;;;29.10;16.35;;;8.80;99.90;;;;;;7586857;19;20044;-69
2023/04/19 00:26:14;;;;;;;26.42;16.02;;;8.80;99.90;;;;;;7560364;19;20022;-71
2023/04/19 00:28:51;;;;;;;26.50;15.90;;;8.70;99.90;;;;;;7571942;19;20030;-71
2023/04/19 00:31:23;;;;;;;25.25;15.55;;;8.80;99.90;;;;;;7572660;19;20022;-70
2023/04/19 00:33:56;;;;;;;27.90;16.63;;;8.70;99.90;;;;;;7588287;19;20017;-71
2023/04/19 00:36:30;;;;;;;27.50;16.67;;;8.70;99.90;;;;;;7585443;19;20029;-69
2023/04/19 00:39:03;;;;;;;25.95;16.23;;;8.70;99.90;;;;;;7591182;19;20525;-70
2023/04/19 00:41:35;;;;;;;29.23;17.48;;;8.70;99.90;;;;;;7592158;19;20014;-70
2023/04/19 00:44:08;;;;;;;26.10;15.85;;;8.60;99.90;;;;;;7585667;19;20570;-71
2023/04/19 00:46:41;;;;;;;29.77;17.33;;;8.60;99.90;;;;;;7578697;19;20018;-70
2023/04/19 00:49:14;;;;;;;29.60;16.60;;;8.60;99.90;;;;;;7580718;19;20044;-70
2023/04/19 00:51:47;;;;;;;30.98;17.35;;;8.60;99.90;;;;;;7567811;19;20018;-69
2023/04/19 00:54:20;;;;;;;31.52;17.60;;;8.60;99.90;;;;;;7574793;19;20018;-71
2023/04/19 00:56:54;;;;;;;29.52;16.60;;;8.60;99.90;;;;;;7575421;19;20038;-69
2023/04/19 00:59:30;;;;;;;29.35;17.17;;;8.50;99.90;;;;;;7579703;19;20018;-70
2023/04/19 01:02:02;;;;;;;29.48;17.55;;;8.60;99.90;;;;;;7590193;19;20521;-71
2023/04/19 01:04:34;;;;;;;30.58;18.10;;;8.60;99.90;;;;;;7591824;19;20019;-70
2023/04/19 01:07:07;;;;;;;30.33;16.30;;;8.50;99.90;;;;;;7582782;19;20022;-71
2023/04/19 01:09:42;;;;;;;28.17;16.95;;;8.50;99.90;;;;;;7565640;19;20018;-71
2023/04/19 01:12:14;;;;;;;29.13;17.17;;;8.50;99.90;;;;;;7573097;19;20521;-70
2023/04/19 01:14:47;;;;;;;29.63;17.73;;;8.50;99.90;;;;;;7574022;19;20010;-69
2023/04/19 01:17:22;;;;;;;28.42;16.98;;;8.50;99.90;;;;;;7580687;19;20540;-71
2023/04/19 01:20:02;;;;;;;31.00;18.52;;;8.50;99.90;;;;;;7581668;19;20089;-69
2023/04/19 01:22:36;;;;;;;28.52;17.63;;;8.50;99.90;;;;;;7583305;19;20015;-70
2023/04/19 01:25:10;;;;;;;26.73;17.00;;;8.50;99.90;;;;;;7588381;19;20010;-70
2023/04/19 01:27:43;;;;;;;28.13;18.00;;;8.50;99.90;;;;;;7561246;19;20022;-70
2023/04/19 01:30:15;;;;;;;28.83;17.53;;;8.40;99.90;;;;;;7583704;19;20029;-70
2023/04/19 01:32:48;;;;;;;27.85;16.65;;;8.50;99.90;;;;;;7567924;19;21102;-71
2023/04/19 01:35:20;;;;;;;31.15;17.88;;;8.40;99.90;;;;;;7575935;19;20444;-71
2023/04/19 01:37:55;;;;;;;28.38;17.38;;;8.40;99.90;;;;;;7576416;19;20105;-71
2023/04/19 01:40:27;;;;;;;30.30;18.50;;;8.40;99.90;;;;;;7590005;19;20019;-71
2023/04/19 01:42:59;;;;;;;32.25;19.13;;;8.50;99.90;;;;;;7576202;19;20086;-70
2023/04/19 01:45:32;;;;;;;29.70;18.60;;;8.40;99.90;;;;;;7580563;19;20010;-71
2023/04/19 01:48:05;;;;;;;33.15;19.52;;;8.50;99.90;;;;;;7567407;19;20029;-71
2023/04/19 01:50:38;;;;;;;31.50;18.55;;;8.50;99.90;;;;;;7568992;19;20071;-70
2023/04/19 01:53:10;;;;;;;31.17;19.00;;;8.50;99.90;;;;;;7569702;19;20124;-70
2023/04/19 01:55:43;;;;;;;32.90;19.27;;;8.50;99.90;;;;;;7588595;19;21207;-71
2023/04/19 01:58:15;;;;;;;33.65;19.38;;;8.40;99.90;;;;;;7585183;19;20376;-72
2023/04/19 02:00:48;;;;;;;40.47;23.70;;;8.50;99.90;;;;;;7574279;19;20019;-71
2023/04/19 02:03:21;;;;;;;36.90;21.17;;;8.30;99.90;;;;;;7584477;19;20021;-71
2023/04/19 02:05:54;;;;;;;34.13;20.45;;;8.30;99.90;;;;;;7576547;19;20623;-71
2023/04/19 02:08:26;;;;;;;36.92;21.45;;;8.30;99.90;;;;;;7589483;19;20040;-70
2023/04/19 02:10:58;;;;;;;41.20;22.88;;;8.40;99.90;;;;;;7577018;19;20009;-70
2023/04/19 02:13:31;;;;;;;41.70;22.10;;;8.40;99.90;;;;;;7578222;19;20018;-71
2023/04/19 02:16:04;;;;;;;41.27;22.53;;;8.30;99.90;;;;;;7573672;19;20026;-71
2023/04/19 02:18:40;;;;;;;41.47;22.30;;;8.30;99.90;;;;;;7581500;19;20271;-71
2023/04/19 02:21:12;;;;;;;41.67;23.70;;;8.40;99.90;;;;;;7582358;19;20624;-70
2023/04/19 02:23:45;;;;;;;45.83;25.17;;;8.30;99.90;;;;;;7597502;19;20026;-70
2023/04/19 02:26:19;;;;;;;50.53;26.60;;;8.30;99.90;;;;;;7580756;19;20014;-70
2023/04/19 02:28:52;;;;;;;46.40;24.40;;;8.30;99.90;;;;;;7576558;19;20014;-70
2023/04/19 02:31:24;;;;;;;48.13;26.23;;;8.30;99.90;;;;;;7578898;19;20022;-71
2023/04/19 02:33:56;;;;;;;48.78;25.45;;;8.30;99.90;;;;;;7574189;19;20086;-70
2023/04/19 02:36:29;;;;;;;47.90;25.38;;;8.40;99.90;;;;;;7590631;19;20500;-71
2023/04/19 02:39:01;;;;;;;41.63;23.97;;;8.40;99.90;;;;;;7578656;19;20372;-71
2023/04/19 02:41:34;;;;;;;49.65;26.90;;;8.40;99.90;;;;;;7585934;19;20010;-71
2023/04/19 02:44:07;;;;;;;41.65;23.45;;;8.40;99.90;;;;;;7568865;19;20116;-71
2023/04/19 02:46:39;;;;;;;50.60;27.13;;;8.40;99.90;;;;;;7583787;19;20011;-71
2023/04/19 02:49:11;;;;;;;51.58;26.95;;;8.40;99.90;;;;;;7581169;19;20018;-70
2023/04/19 02:51:44;;;;;;;45.13;26.40;;;8.30;99.90;;;;;;7579542;19;20026;-71
2023/04/19 02:54:17;;;;;;;49.13;25.95;;;8.40;99.90;;;;;;7575907;19;20962;-71
2023/04/19 02:56:51;;;;;;;44.25;24.92;;;8.40;99.90;;;;;;7581374;19;20490;-71
2023/04/19 02:59:23;;;;;;;48.78;25.88;;;8.40;99.90;;;;;;7572365;19;20014;-70
2023/04/19 03:01:56;;;;;;;62.43;28.20;;;8.40;99.90;;;;;;7592467;19;20029;-70
2023/04/19 03:04:30;;;;;;;44.97;25.55;;;8.30;99.90;;;;;;7594280;19;20018;-72
2023/04/19 03:07:02;;;;;;;;;;;8.30;99.90;;;;;;7587047;19;20018;-72
2023/04/19 03:09:35;;;;;;;57.85;28.50;;;8.30;99.90;;;;;;7591892;19;19923;-71
2023/04/19 03:12:08;;;;;;;52.70;27.00;;;8.30;99.90;;;;;;7581929;19;20887;-70
2023/04/19 03:14:40;;;;;;;52.17;27.75;;;8.30;99.90;;;;;;7577052;19;20060;-70
2023/04/19 03:17:13;;;;;;;58.40;28.27;;;8.30;99.90;;;;;;7574106;19;20478;-71
2023/04/19 03:19:46;;;;;;;61.10;30.75;;;8.30;99.90;;;;;;7593563;19;20084;-70
2023/04/19 03:22:19;;;;;;;;;;;8.30;99.90;;;;;;7588074;19;20467;-72
2023/04/19 03:24:51;;;;;;;55.70;28.80;;;8.30;99.90;;;;;;7586108;19;21132;-71
2023/04/19 03:27:26;;;;;;;52.63;28.05;;;8.30;99.90;;;;;;7573486;19;20022;-71
2023/04/19 03:30:04;;;;;;;53.42;27.83;;;8.30;99.90;;;;;;7583610;19;20025;-71
2023/04/19 03:32:37;;;;;;;59.40;31.17;;;8.30;99.90;;;;;;7585067;19;20026;-70
2023/04/19 03:35:11;;;;;;;59.92;30.83;;;8.30;99.90;;;;;;7583079;19;20099;-70
2023/04/19 03:37:43;;;;;;;67.32;32.30;;;8.30;99.90;;;;;;7592066;19;20056;-71
2023/04/19 03:40:15;;;;;;;71.38;34.17;;;8.30;99.90;;;;;;7589650;19;20474;-70
2023/04/19 03:42:47;;;;;;;74.38;34.67;;;8.30;99.90;;;;;;7580215;19;20526;-70
2023/04/19 03:45:32;;;;;;;75.10;36.20;;;8.30;99.90;;;;;;7587118;19;20018;-71
2023/04/19 03:48:05;;;;;;;78.00;37.13;;;8.30;99.90;;;;;;7574989;19;20036;-70
2023/04/19 03:50:38;;;;;;;;;;;8.30;99.90;;;;;;7588626;19;20051;-72
2023/04/19 03:53:12;;;;;;;83.13;36.67;;;8.30;99.90;;;;;;7589933;19;19953;-71
2023/04/19 03:55:44;;;;;;;76.55;39.20;;;8.20;99.90;;;;;;7589006;19;20027;-70
2023/04/19 03:58:17;;;;;;;77.82;36.42;;;8.20;99.90;;;;;;7569260;19;20093;-70
2023/04/19 04:01:02;;;;;;;88.00;38.83;;;8.30;99.90;;;;;;7573850;19;20018;-71
2023/04/19 04:03:35;;;;;;;71.10;36.50;;;8.30;99.90;;;;;;7582045;19;20452;-71
2023/04/19 04:06:08;;;;;;;76.75;35.95;;;8.30;99.90;;;;;;7573922;19;20424;-71
2023/04/19 04:08:41;;;;;;;70.60;37.10;;;8.30;99.90;;;;;;7592123;19;20021;-70
2023/04/19 04:11:13;;;;;;;85.05;40.88;;;8.30;99.90;;;;;;7583661;19;20621;-70
2023/04/19 04:13:48;;;;;;;80.30;38.45;;;8.30;99.90;;;;;;7564260;19;20018;-70
2023/04/19 04:16:24;;;;;;;77.78;38.00;;;8.30;99.90;;;;;;7551780;19;20131;-70
2023/04/19 04:18:58;;;;;;;80.78;39.95;;;8.30;99.90;;;;;;7550419;19;20011;-72
2023/04/19 04:21:32;;;;;;;72.53;37.53;;;8.30;99.90;;;;;;7585660;19;21073;-72
2023/04/19 04:24:06;;;;;;;80.45;37.58;;;8.30;99.90;;;;;;7580631;19;20510;-71
2023/04/19 04:27:04;;;;;;;71.18;37.63;;;8.30;99.90;;;;;;7544860;19;21061;-71
2023/04/19 04:29:40;;;;;;;81.53;40.58;;;8.30;99.90;;;;;;7577377;19;20027;-71
2023/04/19 04:32:16;;;;;;;;;;;8.30;99.90;;;;;;7560315;19;22202;-72
2023/04/19 04:34:50;;;;;;;75.60;38.67;;;8.30;99.90;;;;;;7569476;19;19918;-71
2023/04/19 04:37:34;;;;;;;88.03;40.65;;;8.30;99.90;;;;;;7565781;19;20053;-70
2023/04/19 04:40:08;;;;;;;86.40;40.17;;;8.20;99.90;;;;;;7565848;19;20110;-72
2023/04/19 04:42:41;;;;;;;75.23;39.40;;;8.30;99.90;;;;;;7555461;19;20015;-70
2023/04/19 04:45:17;;;;;;;77.07;39.20;;;8.30;99.90;;;;;;7565455;19;20274;-71
2023/04/19 04:47:50;;;;;;;68.55;35.80;;;8.30;99.90;;;;;;7567624;19;20029;-70
2023/04/19 04:50:22;;;;;;;75.97;37.83;;;8.30;99.90;;;;;;7550430;19;21408;-71
2023/04/19 04:52:55;;;;;;;81.10;39.20;;;8.20;99.90;;;;;;7560694;19;20292;-72
2023/04/19 04:55:34;;;;;;;68.57;36.65;;;8.20;99.90;;;;;;7567382;19;20022;-73
2023/04/19 04:58:06;;;;;;;67.75;36.40;;;8.20;99.90;;;;;;7559412;19;20025;-72
2023/04/19 05:01:08;;;;;;;70.82;37.20;;;8.30;99.90;;;;;;7551728;19;20041;-70
2023/04/19 05:03:44;;;;;;;79.28;39.97;;;8.20;99.90;;;;;;7560704;19;20010;-71
2023/04/19 05:06:21;;;;;;;86.07;41.80;;;8.20;99.90;;;;;;7555980;19;20530;-71
2023/04/19 05:08:53;;;;;;;79.20;40.10;;;8.20;99.90;;;;;;7549377;19;20962;-71
2023/04/19 05:11:34;;;;;;;70.10;37.50;;;8.20;99.90;;;;;;7549457;19;20020;-71
2023/04/19 05:14:07;;;;;;;80.93;40.38;;;8.20;99.90;;;;;;7567570;19;20454;-72
2023/04/19 05:16:39;;;;;;;105.07;44.88;;;8.20;99.90;;;;;;7531267;19;20014;-71
2023/04/19 05:19:12;;;;;;;81.90;40.90;;;8.20;99.90;;;;;;7569635;19;20633;-71
2023/04/19 05:21:50;;;;;;;84.25;42.35;;;8.20;99.90;;;;;;7572295;19;20082;-72
2023/04/19 05:24:22;;;;;;;84.18;39.80;;;8.20;99.90;;;;;;7519081;19;20011;-71
2023/04/19 05:26:55;;;;;;;71.07;36.47;;;8.20;99.90;;;;;;7513587;19;20091;-73
2023/04/19 05:29:29;;;;;;;86.18;42.05;;;8.20;99.90;;;;;;7557208;19;21082;-72
2023/04/19 05:32:01;;;;;;;66.80;33.83;;;8.20;99.90;;;;;;7545177;19;20022;-71
2023/04/19 05:34:37;;;;;;;79.22;40.05;;;8.20;99.90;;;;;;7541638;19;20011;-72
2023/04/19 05:37:10;;;;;;;85.32;39.65;;;8.30;99.90;;;;;;7572176;19;20021;-72
2023/04/19 05:39:42;;;;;;;110.72;47.60;;;8.30;99.90;;;;;;7566878;19;20023;-72
2023/04/19 05:42:15;;;;;;;92.00;42.25;;;8.30;99.90;;;;;;7568538;19;20010;-70
2023/04/19 05:44:47;;;;;;;90.47;42.33;;;8.30;99.90;;;;;;7575878;19;20029;-70
2023/04/19 05:47:20;;;;;;;83.23;42.00;;;8.30;99.90;;;;;;7561316;19;20796;-71
2023/04/19 05:50:19;;;;;;;93.25;42.50;;;8.30;99.90;;;;;;7565140;19;20267;-71
2023/04/19 05:53:10;;;;;;;79.20;38.63;;;8.30;99.90;;;;;;7570167;19;20525;-71
2023/04/19 05:55:44;;;;;;;83.15;41.22;;;8.30;99.90;;;;;;7573312;19;20018;-71
2023/04/19 05:58:17;;;;;;;86.07;41.20;;;8.30;99.90;;;;;;7569197;19;20055;-70
2023/04/19 06:00:50;;;;;;;74.90;40.17;;;8.30;99.90;;;;;;7577990;19;20105;-70
2023/04/19 06:03:24;;;;;;;87.30;41.67;;;8.30;99.90;;;;;;7560306;19;20542;-71
2023/04/19 06:06:03;;;;;;;84.70;40.13;;;8.40;99.90;;;;;;7552119;19;20039;-70
2023/04/19 06:08:36;;;;;;;81.20;41.35;;;8.30;99.90;;;;;;7540058;19;20018;-71
2023/04/19 06:11:08;;;;;;;83.60;42.63;;;8.40;99.90;;;;;;7552628;19;20010;-71
2023/04/19 06:13:55;;;;;;;89.20;40.47;;;8.40;99.90;;;;;;7583091;19;20021;-72
2023/04/19 06:16:28;;;;;;;78.13;37.65;;;8.40;99.90;;;;;;7582385;19;20022;-71
2023/04/19 06:19:00;;;;;;;81.85;40.67;;;8.40;99.90;;;;;;7558512;19;21028;-72
2023/04/19 06:21:33;;;;;;;81.90;40.15;;;8.40;99.90;;;;;;7591957;19;20014;-72
2023/04/19 06:24:06;;;;;;;86.97;40.65;;;8.40;99.90;;;;;;7588943;19;20022;-72
2023/04/19 06:26:39;;;;;;;80.10;38.90;;;8.40;99.90;;;;;;7546450;19;20013;-72
2023/04/19 06:29:11;;;;;;;76.95;37.92;;;8.40;99.90;;;;;;7573498;19;20019;-70
2023/04/19 06:31:45;;;;;;;77.07;37.50;;;8.40;99.90;;;;;;7568484;19;20018;-70
2023/04/19 06:34:17;;;;;;;72.20;37.45;;;8.30;99.90;;;;;;7596112;19;20010;-70
2023/04/19 06:36:50;;;;;;;77.85;39.20;;;8.30;99.90;;;;;;7569531;19;20105;-70
2023/04/19 06:39:22;;;;;;;84.18;39.83;;;8.30;99.90;;;;;;7576095;19;20022;-71
2023/04/19 06:41:55;;;;;;;82.57;39.87;;;8.30;99.90;;;;;;7573513;19;20105;-70
2023/04/19 06:44:28;;;;;;;84.68;39.80;;;8.40;99.90;;;;;;7588372;19;20034;-72
2023/04/19 06:47:00;;;;;;;76.10;37.50;;;8.30;99.90;;;;;;7580701;19;20018;-70
2023/04/19 06:49:33;;;;;;;79.80;39.47;;;8.30;99.90;;;;;;7584551;19;20029;-70
2023/04/19 06:52:05;;;;;;;82.13;40.33;;;8.30;99.90;;;;;;7579198;19;20029;-70
2023/04/19 06:54:38;;;;;;;76.82;36.72;;;8.30;99.90;;;;;;7579011;19;20018;-70
2023/04/19 06:57:10;;;;;;;79.68;38.17;;;8.30;99.90;;;;;;7571460;19;20019;-72
2023/04/19 06:59:43;;;;;;;76.68;38.15;;;8.40;99.90;;;;;;7577577;19;20025;-71
2023/04/19 07:02:15;;;;;;;73.32;35.13;;;8.40;99.90;;;;;;7564312;19;20022;-71
2023/04/19 07:04:48;;;;;;;74.35;36.55;;;8.40;99.90;;;;;;7575148;19;21463;-71
2023/04/19 07:07:20;;;;;;;69.75;36.65;;;8.40;99.90;;;;;;7577741;19;20051;-72
2023/04/19 07:09:52;;;;;;;77.57;34.63;;;8.40;99.90;;;;;;7582824;19;20023;-73
2023/04/19 07:12:25;;;;;;;71.30;35.97;;;8.40;99.90;;;;;;7572215;19;20026;-71
2023/04/19 07:14:57;;;;;;;70.75;35.13;;;8.40;99.90;;;;;;7567345;19;20098;-72
2023/04/19 07:17:29;;;;;;;72.85;35.65;;;8.40;99.90;;;;;;7550297;19;20030;-72
2023/04/19 07:20:03;;;;;;;79.25;35.83;;;8.40;99.90;;;;;;7559160;19;20980;-70
2023/04/19 07:22:36;;;;;;;76.55;36.80;;;8.40;99.90;;;;;;7582857;19;22401;-71
2023/04/19 07:25:08;;;;;;;66.82;34.33;;;8.40;99.90;;;;;;7588792;19;20022;-72
2023/04/19 07:27:41;;;;;;;66.03;33.88;;;8.40;99.90;;;;;;7553066;19;20025;-71
2023/04/19 07:30:13;;;;;;;72.53;35.42;;;8.40;99.90;;;;;;7584583;19;20025;-71
2023/04/19 07:32:46;;;;;;;69.78;34.83;;;8.40;99.90;;;;;;7583460;19;20081;-72
2023/04/19 07:35:19;;;;;;;72.53;36.70;;;8.50;99.90;;;;;;7572769;19;20021;-71
2023/04/19 07:37:52;;;;;;;75.38;37.38;;;8.50;99.90;;;;;;7540399;19;20488;-71
2023/04/19 07:40:24;;;;;;;75.63;36.10;;;8.50;99.90;;;;;;7579628;19;20045;-71
2023/04/19 07:42:57;;;;;;;66.80;33.63;;;8.40;99.90;;;;;;7565190;19;20025;-71
2023/04/19 07:45:30;;;;;;;70.68;34.08;;;8.40;99.90;;;;;;7581862;19;20014;-71
2023/04/19 07:48:02;;;;;;;71.72;34.50;;;8.40;99.90;;;;;;7581563;19;20025;-71
2023/04/19 07:50:35;;;;;;;74.30;36.97;;;8.50;99.90;;;;;;7571194;19;20018;-71
2023/04/19 07:53:08;;;;;;;73.43;35.30;;;8.50;99.90;;;;;;7595268;19;20044;-72
2023/04/19 07:55:40;;;;;;;76.30;36.30;;;8.50;99.90;;;;;;7559568;19;20688;-71
2023/04/19 07:58:13;;;;;;;79.00;37.47;;;8.60;99.90;;;;;;7562599;19;20021;-72
2023/04/19 08:00:45;;;;;;;81.05;37.42;;;8.50;99.90;;;;;;7573787;19;20018;-70
2023/04/19 08:03:17;;;;;;;79.93;37.78;;;8.40;99.90;;;;;;7581304;19;20011;-70
2023/04/19 08:05:50;;;;;;;71.90;35.85;;;8.50;99.90;;;;;;7593079;19;21122;-70
2023/04/19 08:08:23;;;;;;;71.03;35.65;;;8.60;99.90;;;;;;7567226;19;20018;-72
2023/04/19 08:10:56;;;;;;;64.50;33.50;;;8.70;99.90;;;;;;7579466;19;20441;-70
2023/04/19 08:13:30;;;;;;;64.95;33.78;;;8.80;99.90;;;;;;7587516;19;20635;-71
2023/04/19 08:16:02;;;;;;;65.13;32.83;;;8.80;99.90;;;;;;7586139;19;20026;-70
2023/04/19 08:18:54;;;;;;;56.97;31.33;;;8.90;99.90;;;;;;7581211;19;20018;-71
2023/04/19 08:21:27;;;;;;;56.90;30.45;;;9.00;99.90;;;;;;7592261;19;20461;-71
2023/04/19 08:24:11;;;;;;;63.38;31.55;;;9.10;99.90;;;;;;7592438;19;20024;-71
2023/04/19 08:26:43;;;;;;;58.17;30.40;;;9.20;99.90;;;;;;7576058;19;21911;-72
2023/04/19 08:29:15;;;;;;;59.63;31.77;;;9.20;99.90;;;;;;7582057;19;20109;-71
2023/04/19 08:31:48;;;;;;;58.60;32.30;;;9.30;99.90;;;;;;7558383;19;20057;-71
2023/04/19 08:34:23;;;;;;;66.50;34.60;;;9.50;99.90;;;;;;7557081;19;20018;-74
2023/04/19 08:36:56;;;;;;;56.47;31.73;;;9.50;99.90;;;;;;7558054;19;20014;-71
2023/04/19 08:39:35;;;;;;;57.78;30.10;;;9.60;99.90;;;;;;7569509;19;20031;-73
2023/04/19 08:42:09;;;;;;;49.67;28.58;;;9.70;99.90;;;;;;7562272;19;20029;-73
2023/04/19 08:45:04;;;;;;;50.40;28.27;;;9.80;99.90;;;;;;7574238;19;20022;-73
2023/04/19 08:47:40;;;;;;;50.08;28.58;;;9.80;99.90;;;;;;7580568;19;20011;-72
2023/04/19 08:50:19;;;;;;;49.42;27.42;;;9.60;99.90;;;;;;7576445;19;20384;-72
2023/04/19 08:53:06;;;;;;;50.92;29.30;;;9.70;99.90;;;;;;7584836;19;20014;-72
2023/04/19 08:56:00;;;;;;;53.45;27.88;;;9.80;99.90;;;;;;7562598;19;20021;-73
2023/04/19 08:58:45;;;;;;;56.85;29.65;;;9.80;99.90;;;;;;7569220;19;20814;-73
2023/04/19 09:01:21;;;;;;;49.58;28.67;;;9.90;99.90;;;;;;7594247;19;20723;-72
2023/04/19 09:04:06;;;;;;;54.78;29.42;;;9.90;99.90;;;;;;7531251;19;20435;-75
2023/04/19 09:06:59;;;;;;;52.83;29.08;;;9.90;99.90;;;;;;7574139;19;20015;-74
2023/04/19 09:09:31;;;;;;;51.67;28.70;;;10.10;99.90;;;;;;7574200;19;20034;-75
2023/04/19 09:12:17;;;;;;;45.80;26.50;;;10.10;99.90;;;;;;7566497;19;20315;-75
2023/04/19 09:14:49;;;;;;;51.78;28.60;;;10.00;99.90;;;;;;7580722;19;20030;-75
2023/04/19 09:17:37;;;;;;;44.92;25.05;;;10.00;99.90;;;;;;7564019;19;20122;-75
2023/04/19 09:20:10;;;;;;;53.97;28.80;;;10.00;99.90;;;;;;7550604;19;21007;-74
2023/04/19 09:22:42;;;;;;;51.55;28.25;;;10.10;99.90;;;;;;7594452;19;20015;-74
2023/04/19 09:25:24;;;;;;;50.33;28.27;;;10.20;99.90;;;;;;7595596;19;20106;-74
2023/04/19 09:28:16;;;;;;;49.78;27.92;;;10.20;99.90;;;;;;7593533;19;20022;-74
2023/04/19 09:30:49;;;;;;;50.22;28.20;;;10.30;99.90;;;;;;7593985;19;20026;-73
2023/04/19 09:33:38;;;;;;;52.13;28.83;;;10.40;99.90;;;;;;7600690;19;20145;-75
2023/04/19 09:36:11;;;;;;;45.67;26.00;;;10.40;99.90;;;;;;7592903;19;20021;-74
2023/04/19 09:38:47;;;;;;;49.30;27.52;;;10.10;99.90;;;;;;7593030;19;20018;-74
2023/04/19 09:41:20;;;;;;;53.08;28.58;;;10.10;99.90;;;;;;7576411;19;20010;-74
2023/04/19 09:43:53;;;;;;;48.08;28.35;;;10.30;99.90;;;;;;7591102;19;20627;-75
2023/04/19 09:46:35;;;;;;;54.28;28.80;;;10.40;99.90;;;;;;7590476;19;20019;-75
2023/04/19 09:49:21;;;;;;;49.63;28.98;;;10.40;99.90;;;;;;7595425;19;20047;-74
2023/04/19 09:52:13;;;;;;;50.28;27.83;;;10.50;99.90;;;;;;7601621;19;20030;-74
2023/04/19 09:54:47;;;;;;;61.08;28.05;;;10.80;99.90;;;;;;7596655;19;20014;-75
2023/04/19 09:57:19;;;;;;;;;;;11.10;99.90;;;;;;7574118;19;20529;-74
2023/04/19 09:59:52;;;;;;;48.53;28.50;;;11.30;99.90;;;;;;7556061;19;19926;-73
2023/04/19 10:02:29;;;;;;;50.40;28.73;;;11.50;99.90;;;;;;7587957;19;20014;-75
2023/04/19 10:05:03;;;;;;;44.00;26.58;;;11.50;99.90;;;;;;7583948;19;20022;-75
2023/04/19 10:07:54;;;;;;;52.10;27.70;;;11.70;99.90;;;;;;7563134;19;20094;-73
2023/04/19 10:10:31;;;;;;;49.75;28.30;;;11.80;99.90;;;;;;7561671;19;20540;-74
2023/04/19 10:13:22;;;;;;;52.17;26.77;;;11.80;99.90;;;;;;7583324;19;20021;-74
2023/04/19 10:15:59;;;;;;;49.83;27.08;;;11.80;99.90;;;;;;7547713;19;21573;-74
2023/04/19 10:18:48;;;;;;;46.40;27.05;;;11.80;99.90;;;;;;7550141;19;20755;-73
2023/04/19 10:21:22;;;;;;;44.42;26.95;;;11.80;99.90;;;;;;7562181;19;20021;-74
2023/04/19 10:23:56;;;;;;;38.88;23.73;;;11.80;99.90;;;;;;7535187;19;20057;-74
2023/04/19 10:26:28;;;;;;;54.10;25.63;;;11.90;99.90;;;;;;7554793;19;20022;-73
2023/04/19 10:29:00;;;;;;;45.17;25.33;;;11.70;99.90;;;;;;7571903;19;20025;-74
2023/04/19 10:31:33;;;;;;;44.67;25.70;;;11.50;99.90;;;;;;7562142;19;20018;-74
2023/04/19 10:34:05;;;;;;;42.90;25.63;;;11.50;99.90;;;;;;7564304;19;20040;-74
2023/04/19 10:36:37;;;;;;;38.65;24.45;;;11.50;99.90;;;;;;7532763;19;20485;-73
2023/04/19 10:39:40;;;;;;;42.03;24.17;;;11.40;99.90;;;;;;7554510;19;21269;-73
2023/04/19 10:42:12;;;;;;;43.15;23.67;;;11.50;99.90;;;;;;7536061;19;20015;-74
2023/04/19 10:45:23;;;;;;;44.90;25.90;;;11.50;99.90;;;;;;7562554;19;20019;-74
2023/04/19 10:47:55;;;;;;;46.13;25.48;;;11.40;99.90;;;;;;7567679;19;20018;-74
2023/04/19 10:50:28;;;;;;;39.97;24.40;;;11.30;99.90;;;;;;7585143;19;20038;-74
2023/04/19 10:53:38;;;;;;;42.97;23.98;;;11.30;99.90;;;;;;7593224;19;20014;-75
2023/04/19 10:56:11;;;;;;;42.67;24.15;;;11.20;99.90;;;;;;7585941;19;20658;-73
2023/04/19 10:59:04;;;;;;;39.95;22.08;;;11.20;99.90;;;;;;7592282;19;20813;-74
2023/04/19 11:01:38;;;;;;;39.33;24.77;;;11.20;99.90;;;;;;7596834;19;20049;-75
2023/04/19 11:04:13;;;;;;;44.95;23.77;;;11.00;99.90;;;;;;7596879;19;20018;-74
2023/04/19 11:06:51;;;;;;;39.80;24.05;;;10.90;99.90;;;;;;7587403;19;21060;-74
2023/04/19 11:09:24;;;;;;;38.70;23.58;;;10.90;99.90;;;;;;7600152;19;20022;-74
2023/04/19 11:12:02;;;;;;;45.17;25.45;;;10.90;99.90;;;;;;7587224;19;20022;-74
2023/04/19 11:14:40;;;;;;;41.05;24.48;;;10.90;99.90;;;;;;7600101;19;20029;-74
2023/04/19 11:17:25;;;;;;;43.40;24.98;;;10.80;99.90;;;;;;7572030;19;20022;-74
2023/04/19 11:20:07;;;;;;;47.53;25.30;;;10.80;99.90;;;;;;7576868;19;20022;-74
2023/04/19 11:22:41;;;;;;;49.92;25.88;;;10.70;99.90;;;;;;7594037;19;20057;-73
2023/04/19 11:25:15;;;;;;;45.63;26.33;;;10.60;99.90;;;;;;7587018;19;20014;-74
2023/04/19 11:27:48;;;;;;;;;;;10.50;99.90;;;;;;7581485;19;20025;-73
2023/04/19 11:30:27;;;;;;;57.75;28.30;;;10.50;99.90;;;;;;7566850;19;19931;-73
2023/04/19 11:33:00;;;;;;;49.53;28.33;;;10.40;99.90;;;;;;7558966;19;20026;-74
2023/04/19 11:35:32;;;;;;;43.60;25.50;;;10.30;99.90;;;;;;7533080;19;20022;-73
2023/04/19 11:38:05;;;;;;;49.35;26.63;;;10.30;99.90;;;;;;7572845;19;20026;-72
2023/04/19 11:40:37;;;;;;;46.50;26.65;;;10.30;99.90;;;;;;7576390;19;20993;-74
2023/04/19 11:43:10;;;;;;;48.93;28.03;;;10.30;99.90;;;;;;7553169;19;20412;-73
2023/04/19 11:45:42;;;;;;;49.67;26.27;;;10.30;99.90;;;;;;7551701;19;20022;-72
2023/04/19 11:48:15;;;;;;;64.00;35.03;;;10.20;99.90;;;;;;7561975;19;20033;-72
2023/04/19 11:50:48;;;;;;;48.08;27.42;;;10.20;99.90;;;;;;7582538;19;20018;-73
2023/04/19 11:53:24;;;;;;;50.58;27.25;;;10.20;99.90;;;;;;7584527;19;20359;-72
2023/04/19 11:56:07;;;;;;;46.38;26.98;;;10.10;99.90;;;;;;7559437;19;20562;-72
2023/04/19 11:58:50;;;;;;;52.53;28.83;;;9.90;99.90;;;;;;7576610;19;20018;-72
2023/04/19 12:01:24;;;;;;;57.30;29.37;;;9.80;99.90;;;;;;7597703;19;20011;-72
2023/04/19 12:03:56;;;;;;;55.03;30.42;;;9.80;99.90;;;;;;7572334;19;20059;-71
2023/04/19 12:06:32;;;;;;;56.00;30.15;;;9.80;99.90;;;;;;7559964;19;20114;-71
2023/04/19 12:09:07;;;;;;;61.15;32.50;;;9.70;99.90;;;;;;7588523;19;20048;-70
2023/04/19 12:11:48;;;;;;;67.20;33.88;;;9.70;99.90;;;;;;7598084;19;21106;-71
2023/04/19 12:14:22;;;;;;;58.88;33.28;;;9.70;99.90;;;;;;7581453;19;20029;-70
2023/04/19 12:17:14;;;;;;;67.97;34.92;;;9.70;99.90;;;;;;7578364;19;20055;-72
2023/04/19 12:19:47;;;;;;;62.75;33.33;;;9.60;99.90;;;;;;7573617;19;20041;-72
2023/04/19 12:22:19;;;;;;;56.50;31.98;;;9.60;99.90;;;;;;7562372;19;20006;-72
2023/04/19 12:24:53;;;;;;;64.40;33.88;;;9.50;99.90;;;;;;7564897;19;20448;-72
2023/04/19 12:27:25;;;;;;;;;;;9.50;99.90;;;;;;7575395;19;20039;-72
2023/04/19 12:29:57;;;;;;;66.60;31.70;;;9.50;99.90;;;;;;7569204;19;19918;-72
2023/04/19 12:32:30;;;;;;;60.28;32.45;;;9.50;99.90;;;;;;7577442;19;20014;-74
2023/04/19 12:35:02;;;;;;;60.25;32.05;;;9.50;99.90;;;;;;7585876;19;20014;-72
2023/04/19 12:37:35;;;;;;;61.15;33.22;;;9.50;99.90;;;;;;7579109;19;20410;-70
2023/04/19 12:40:08;;;;;;;47.28;27.25;;;9.50;99.90;;;;;;7570740;19;20014;-72
2023/04/19 12:42:40;;;;;;;39.80;21.53;;;9.50;99.90;;;;;;7583241;19;20014;-69
2023/04/19 12:45:13;;;;;;;29.77;16.25;;;9.40;99.90;;;;;;7569225;19;20319;-72
2023/04/19 12:47:47;;;;;;;26.33;14.83;;;9.30;99.90;;;;;;7581376;19;22190;-71
2023/04/19 12:50:19;;;;;;;;;;;9.20;99.90;;;;;;7592217;19;20406;-72
2023/04/19 12:52:52;;;;;;;20.90;12.25;;;9.00;99.90;;;;;;7588770;19;19922;-73
2023/04/19 12:55:25;;;;;;;18.50;12.07;;;9.00;99.90;;;;;;7602761;19;20086;-72
2023/04/19 12:57:57;;;;;;;21.38;11.38;;;9.00;99.90;;;;;;7587193;19;20007;-73
2023/04/19 13:00:30;;;;;;;19.52;11.75;;;8.90;99.90;;;;;;7598459;19;20466;-71
2023/04/19 13:03:03;;;;;;;23.73;13.38;;;9.00;99.90;;;;;;7593986;19;20374;-72
2023/04/19 13:05:35;;;;;;;22.23;13.35;;;9.00;99.90;;;;;;7592613;19;20574;-72
2023/04/19 13:08:07;;;;;;;26.05;13.75;;;9.00;99.90;;;;;;7583605;19;20017;-71
2023/04/19 13:10:39;;;;;;;21.17;13.52;;;9.00;99.90;;;;;;7592608;19;20014;-73
2023/04/19 13:13:12;;;;;;;22.87;13.63;;;9.00;99.90;;;;;;7595767;19;20094;-73
2023/04/19 13:15:44;;;;;;;23.52;12.57;;;9.00;99.90;;;;;;7590490;19;20061;-73
2023/04/19 13:18:18;;;;;;;25.27;14.15;;;9.00;99.90;;;;;;7602556;19;20448;-72